createdAt,value
2023-04-05T00:00:37.430Z,8.35
2023-04-05T00:02:44.261Z,9.90
2023-04-05T00:04:57.554Z,10.57
2023-04-05T00:07:08.678Z,10.15
2023-04-05T00:09:14.024Z,9.48
2023-04-05T00:11:21.955Z,7.63
2023-04-05T00:13:27.174Z,8.15
2023-04-05T00:15:32.991Z,7.53
2023-04-05T00:17:38.322Z,7.10
2023-04-05T00:19:45.257Z,7.28
2023-04-05T00:21:50.536Z,9.38
2023-04-05T00:23:58.654Z,9.02
2023-04-05T00:26:03.877Z,8.60
2023-04-05T00:28:11.914Z,8.25
2023-04-05T00:30:21.163Z,8.05
2023-04-05T00:32:26.576Z,7.70
2023-04-05T00:34:32.749Z,7.93
2023-04-05T00:36:39.015Z,7.75
2023-04-05T00:38:45.730Z,8.15
2023-04-05T00:40:50.905Z,8.35
2023-04-05T00:42:55.992Z,8.23
2023-04-05T00:45:04.043Z,9.10
2023-04-05T00:47:10.198Z,9.15
2023-04-05T00:49:16.022Z,8.43
2023-04-05T00:51:24.222Z,8.40
2023-04-05T00:53:28.128Z,7.43
2023-04-05T00:55:34.215Z,8.32
2023-04-05T00:57:40.057Z,8.32
2023-04-05T00:59:45.788Z,7.57
2023-04-05T01:01:58.815Z,8.48
2023-04-05T01:06:30.496Z,7.22
2023-04-05T01:08:45.699Z,7.00
2023-04-05T01:10:59.894Z,6.95
2023-04-05T01:13:05.619Z,7.07
2023-04-05T01:15:12.779Z,6.68
2023-04-05T01:17:22.626Z,7.28
2023-04-05T01:19:35.522Z,8.15
2023-04-05T01:22:26.523Z,5.72
2023-04-05T01:24:47.838Z,6.57
2023-04-05T01:27:09.834Z,6.65
2023-04-05T01:29:54.357Z,7.00
2023-04-05T01:32:05.845Z,7.25
2023-04-05T01:34:23.284Z,6.78
2023-04-05T01:36:37.277Z,6.72
2023-04-05T01:38:47.551Z,6.63
2023-04-05T01:40:53.581Z,6.68
2023-04-05T01:42:58.607Z,7.45
2023-04-05T01:45:07.729Z,7.20
2023-04-05T01:47:12.721Z,6.60
2023-04-05T01:49:17.799Z,6.95
2023-04-05T01:51:23.108Z,6.88
2023-04-05T01:53:28.924Z,7.40
2023-04-05T01:55:34.439Z,7.05
2023-04-05T01:57:39.797Z,7.82
2023-04-05T01:59:44.838Z,6.47
2023-04-05T02:01:54.587Z,6.90
2023-04-05T02:03:59.807Z,6.47
2023-04-05T02:06:05.437Z,7.28
2023-04-05T02:08:10.462Z,7.53
2023-04-05T02:10:16.017Z,7.82
2023-04-05T02:12:21.076Z,8.02
2023-04-05T02:14:28.033Z,7.93
2023-04-05T02:16:34.582Z,7.82
2023-04-05T02:18:43.763Z,8.52
2023-04-05T02:20:49.531Z,8.77
2023-04-05T02:22:55.569Z,8.60
2023-04-05T02:25:01.599Z,7.60
2023-04-05T02:27:08.027Z,8.90
2023-04-05T02:29:13.035Z,8.52
2023-04-05T02:31:18.538Z,8.20
2023-04-05T02:33:24.856Z,8.20
2023-04-05T02:35:32.774Z,8.35
2023-04-05T02:37:38.015Z,8.52
2023-04-05T02:39:43.281Z,9.15
2023-04-05T02:41:50.345Z,7.95
2023-04-05T02:43:55.338Z,7.57
2023-04-05T02:46:00.858Z,8.13
2023-04-05T02:48:06.399Z,8.27
2023-04-05T02:50:11.804Z,8.02
2023-04-05T02:52:24.360Z,8.27
2023-04-05T02:54:29.473Z,8.38
2023-04-05T02:56:42.209Z,9.02
2023-04-05T02:58:51.796Z,9.25
2023-04-05T03:01:06.200Z,9.07
2023-04-05T03:03:11.941Z,9.68
2023-04-05T03:05:20.861Z,9.15
2023-04-05T03:07:33.270Z,8.95
2023-04-05T03:09:40.684Z,7.93
2023-04-05T03:11:48.275Z,9.32
2023-04-05T03:13:54.578Z,7.95
2023-04-05T03:16:14.752Z,8.20
2023-04-05T03:18:20.952Z,8.50
2023-04-05T03:20:27.991Z,8.45
2023-04-05T03:22:40.276Z,8.40
2023-04-05T03:24:46.753Z,8.65
2023-04-05T03:26:54.389Z,7.78
2023-04-05T03:29:02.183Z,8.98
2023-04-05T03:31:11.448Z,8.80
2023-04-05T03:33:17.565Z,9.23
2023-04-05T03:35:25.958Z,10.27
2023-04-05T03:37:31.339Z,10.05
2023-04-05T03:39:42.156Z,9.02
2023-04-05T03:41:47.271Z,9.52
2023-04-05T03:43:52.705Z,9.38
2023-04-05T03:46:01.209Z,9.23
2023-04-05T03:48:08.900Z,9.32
2023-04-05T03:50:14.202Z,9.75
2023-04-05T03:52:19.221Z,9.52
2023-04-05T03:54:24.758Z,9.85
2023-04-05T03:56:36.901Z,9.30
2023-04-05T03:58:56.330Z,9.32
2023-04-05T04:01:06.899Z,9.80
2023-04-05T04:03:12.415Z,9.82
2023-04-05T04:05:21.451Z,8.88
2023-04-05T04:07:31.539Z,9.75
2023-04-05T04:09:36.668Z,9.23
2023-04-05T04:11:49.730Z,9.25
2023-04-05T04:13:58.521Z,9.20
2023-04-05T04:16:13.650Z,8.57
2023-04-05T04:18:45.467Z,8.18
2023-04-05T04:21:13.700Z,9.40
2023-04-05T04:23:40.488Z,9.43
2023-04-05T04:26:27.058Z,8.70
2023-04-05T04:28:51.198Z,9.60
2023-04-05T04:31:16.359Z,9.63
2023-04-05T04:33:44.000Z,10.05
2023-04-05T04:35:57.781Z,10.00
2023-04-05T04:38:20.568Z,10.35
2023-04-05T04:40:53.978Z,9.23
2023-04-05T04:43:14.696Z,9.68
2023-04-05T04:48:05.124Z,9.55
2023-04-05T04:50:36.328Z,9.50
2023-04-05T04:52:41.999Z,9.65
2023-04-05T04:54:47.426Z,10.40
2023-04-05T04:56:52.415Z,10.98
2023-04-05T04:58:59.254Z,9.65
2023-04-05T05:01:11.716Z,11.00
2023-04-05T05:03:17.472Z,10.32
2023-04-05T05:05:24.170Z,10.77
2023-04-05T05:07:29.151Z,10.63
2023-04-05T05:09:34.713Z,11.88
2023-04-05T05:11:39.962Z,12.35
2023-04-05T05:13:51.164Z,11.50
2023-04-05T05:16:02.044Z,12.10
2023-04-05T05:18:10.519Z,12.48
2023-04-05T05:20:15.858Z,12.10
2023-04-05T05:22:23.931Z,12.13
2023-04-05T05:24:29.461Z,11.88
2023-04-05T05:26:34.528Z,12.10
2023-04-05T05:28:39.999Z,11.07
2023-04-05T05:30:45.193Z,11.32
2023-04-05T05:32:50.848Z,12.07
2023-04-05T05:34:58.684Z,13.15
2023-04-05T05:37:03.724Z,12.30
2023-04-05T05:39:09.260Z,11.70
2023-04-05T05:41:14.319Z,12.25
2023-04-05T05:43:20.942Z,11.00
2023-04-05T05:45:26.103Z,10.95
2023-04-05T05:47:31.274Z,9.90
2023-04-05T05:49:36.274Z,10.75
2023-04-05T05:51:43.820Z,10.82
2023-04-05T05:53:48.881Z,10.55
2023-04-05T05:55:54.069Z,11.40
2023-04-05T05:57:59.964Z,11.50
2023-04-05T06:00:09.574Z,10.82
2023-04-05T06:02:18.180Z,11.27
2023-04-05T06:04:23.361Z,11.68
2023-04-05T06:06:30.178Z,10.95
2023-04-05T06:08:38.095Z,11.23
2023-04-05T06:10:43.118Z,11.25
2023-04-05T06:12:48.091Z,11.75
2023-04-05T06:14:53.331Z,11.75
2023-04-05T06:16:58.522Z,12.05
2023-04-05T06:19:03.577Z,11.30
2023-04-05T06:21:09.030Z,11.25
2023-04-05T06:23:14.314Z,10.98
2023-04-05T06:25:21.903Z,10.57
2023-04-05T06:27:27.239Z,10.55
2023-04-05T06:29:32.227Z,10.95
2023-04-05T06:31:39.027Z,11.85
2023-04-05T06:33:44.191Z,11.48
2023-04-05T06:35:50.069Z,11.93
2023-04-05T06:37:55.479Z,11.57
2023-04-05T06:40:02.231Z,10.10
2023-04-05T06:42:09.894Z,11.73
2023-04-05T06:44:22.063Z,11.35
2023-04-05T06:46:27.529Z,12.50
2023-04-05T06:48:32.701Z,10.07
2023-04-05T06:50:37.704Z,11.05
2023-04-05T06:52:42.735Z,11.32
2023-04-05T06:54:47.711Z,11.43
2023-04-05T06:56:52.709Z,9.65
2023-04-05T06:59:02.415Z,10.70
2023-04-05T07:01:08.597Z,10.38
2023-04-05T07:03:13.710Z,10.60
2023-04-05T07:05:18.970Z,9.63
2023-04-05T07:07:24.182Z,9.38
2023-04-05T07:09:30.855Z,9.55
2023-04-05T07:11:36.543Z,8.18
2023-04-05T07:13:41.566Z,8.77
2023-04-05T07:15:49.292Z,9.93
2023-04-05T07:17:54.589Z,7.85
2023-04-05T07:19:59.685Z,8.93
2023-04-05T07:22:04.681Z,8.48
2023-04-05T07:24:10.862Z,9.25
2023-04-05T07:26:15.893Z,7.90
2023-04-05T07:28:21.373Z,8.10
2023-04-05T07:30:26.843Z,8.18
2023-04-05T07:32:34.514Z,7.45
2023-04-05T07:34:41.697Z,7.90
2023-04-05T07:36:47.094Z,7.80
2023-04-05T07:38:52.223Z,8.00
2023-04-05T07:40:57.364Z,7.72
2023-04-05T07:43:02.499Z,7.53
2023-04-05T07:45:08.991Z,8.18
2023-04-05T07:47:14.015Z,7.70
2023-04-05T07:49:21.817Z,6.80
2023-04-05T07:51:28.110Z,7.05
2023-04-05T07:53:33.156Z,8.13
2023-04-05T07:55:41.497Z,8.02
2023-04-05T07:57:46.626Z,6.47
2023-04-05T07:59:54.869Z,6.63
2023-04-05T08:02:05.044Z,6.75
2023-04-05T08:04:22.743Z,6.50
2023-04-05T08:06:28.456Z,6.70
2023-04-05T08:08:33.744Z,6.25
2023-04-05T08:10:42.464Z,5.85
2023-04-05T08:12:47.761Z,6.32
2023-04-05T08:14:52.841Z,5.63
2023-04-05T08:16:57.872Z,6.05
2023-04-05T08:19:02.906Z,6.13
2023-04-05T08:21:10.544Z,5.65
2023-04-05T08:23:15.797Z,5.35
2023-04-05T08:25:20.827Z,5.18
2023-04-05T08:27:25.917Z,4.82
2023-04-05T08:29:30.946Z,4.28
2023-04-05T08:31:36.236Z,4.22
2023-04-05T08:33:41.577Z,4.40
2023-04-05T08:35:46.742Z,4.68
2023-04-05T08:37:54.437Z,4.82
2023-04-05T08:39:59.453Z,4.82
2023-04-05T08:42:11.877Z,4.30
2023-04-05T08:44:18.664Z,4.22
2023-04-05T08:46:25.228Z,4.47
2023-04-05T08:48:35.151Z,3.78
2023-04-05T08:50:40.385Z,4.13
2023-04-05T08:52:50.039Z,4.43
2023-04-05T08:54:59.871Z,3.38
2023-04-05T08:57:06.802Z,3.85
2023-04-05T08:59:14.497Z,3.38
2023-04-05T09:01:19.918Z,3.60
2023-04-05T09:03:27.298Z,3.75
2023-04-05T09:05:33.664Z,3.22
2023-04-05T09:07:40.279Z,3.33
2023-04-05T09:09:51.375Z,3.55
2023-04-05T09:11:59.879Z,3.65
2023-04-05T09:14:06.745Z,4.00
2023-04-05T09:16:12.741Z,4.10
2023-04-05T09:18:26.192Z,3.47
2023-04-05T09:20:32.664Z,4.32
2023-04-05T09:22:46.648Z,3.58
2023-04-05T09:24:52.517Z,3.97
2023-04-05T09:27:11.440Z,3.72
2023-04-05T09:29:32.698Z,4.00
2023-04-05T09:31:40.340Z,5.28
2023-04-05T09:33:49.761Z,3.72
2023-04-05T09:35:55.234Z,3.53
2023-04-05T09:38:02.153Z,3.80
2023-04-05T09:40:11.422Z,3.22
2023-04-05T09:42:23.240Z,3.50
2023-04-05T09:44:28.533Z,3.67
2023-04-05T09:46:38.432Z,3.35
2023-04-05T09:48:50.143Z,3.30
2023-04-05T09:53:19.412Z,2.97
2023-04-05T09:55:33.442Z,3.15
2023-04-05T09:57:44.089Z,3.13
2023-04-05T09:59:50.217Z,3.20
2023-04-05T10:01:55.901Z,3.72
2023-04-05T10:04:03.105Z,2.97
2023-04-05T10:06:08.782Z,3.47
2023-04-05T10:08:14.089Z,2.95
2023-04-05T10:10:19.102Z,3.00
2023-04-05T10:12:29.642Z,2.95
2023-04-05T10:14:37.734Z,2.80
2023-04-05T10:17:00.894Z,3.08
2023-04-05T10:21:17.932Z,2.67
2023-04-05T10:23:31.196Z,4.30
2023-04-05T10:28:06.771Z,2.53
2023-04-05T10:30:18.442Z,3.40
2023-04-05T10:32:38.734Z,2.80
2023-04-05T10:34:51.846Z,3.10
2023-04-05T10:37:01.666Z,3.35
2023-04-05T10:39:14.568Z,3.33
2023-04-05T10:41:19.898Z,2.90
2023-04-05T10:43:28.623Z,2.92
2023-04-05T10:45:37.999Z,3.15
2023-04-05T10:47:50.580Z,2.90
2023-04-05T10:49:59.823Z,3.25
2023-04-05T10:52:06.209Z,3.22
2023-04-05T10:54:12.608Z,2.90
2023-04-05T10:56:18.021Z,2.72
2023-04-05T10:58:25.008Z,3.28
2023-04-05T11:00:31.459Z,3.13
2023-04-05T11:02:39.430Z,3.22
2023-04-05T11:04:45.436Z,2.97
2023-04-05T11:06:50.750Z,3.00
2023-04-05T11:09:02.485Z,3.15
2023-04-05T11:11:08.026Z,3.20
2023-04-05T11:13:16.257Z,2.63
2023-04-05T11:15:34.918Z,2.80
2023-04-05T11:17:42.652Z,3.33
2023-04-05T11:19:55.190Z,2.70
2023-04-05T11:22:05.226Z,3.00
2023-04-05T11:24:15.284Z,3.20
2023-04-05T11:26:20.741Z,3.10
2023-04-05T11:28:32.567Z,12.10
2023-04-05T11:30:51.850Z,3.00
2023-04-05T11:32:59.621Z,2.67
2023-04-05T11:35:11.089Z,2.47
2023-04-05T11:37:19.352Z,3.00
2023-04-05T11:39:29.571Z,3.10
2023-04-05T11:41:37.316Z,3.30
2023-04-05T11:43:42.826Z,3.05
2023-04-05T11:45:48.090Z,2.97
2023-04-05T11:47:53.858Z,2.78
2023-04-05T11:50:02.788Z,2.85
2023-04-05T11:52:17.489Z,2.95
2023-04-05T11:54:35.655Z,2.83
2023-04-05T11:56:42.399Z,2.95
2023-04-05T11:58:49.064Z,3.00
2023-04-05T12:01:03.347Z,2.90
2023-04-05T12:03:08.563Z,3.00
2023-04-05T12:05:16.524Z,2.72
2023-04-05T12:07:23.156Z,2.90
2023-04-05T12:09:28.406Z,2.92
2023-04-05T12:11:33.832Z,2.88
2023-04-05T12:13:40.110Z,2.75
2023-04-05T12:15:45.316Z,2.80
2023-04-05T12:17:55.622Z,2.75
2023-04-05T12:20:00.813Z,3.13
2023-04-05T12:22:10.307Z,2.60
2023-04-05T12:24:16.249Z,2.88
2023-04-05T12:26:22.583Z,2.70
2023-04-05T12:28:28.731Z,2.75
2023-04-05T12:30:38.002Z,2.95
2023-04-05T12:32:51.371Z,2.90
2023-04-05T12:34:58.243Z,2.85
2023-04-05T12:37:04.265Z,2.95
2023-04-05T12:39:13.199Z,2.90
2023-04-05T12:41:18.727Z,3.33
2023-04-05T12:43:24.117Z,2.80
2023-04-05T12:45:31.443Z,2.85
2023-04-05T12:47:38.330Z,2.65
2023-04-05T12:49:43.351Z,2.78
2023-04-05T12:51:50.133Z,2.88
2023-04-05T12:53:59.718Z,2.83
2023-04-05T12:56:10.654Z,2.55
2023-04-05T12:58:17.853Z,2.67
2023-04-05T13:00:28.005Z,2.53
2023-04-05T13:02:33.273Z,2.70
2023-04-05T13:04:38.356Z,3.05
2023-04-05T13:06:43.580Z,2.72
2023-04-05T13:08:48.696Z,3.08
2023-04-05T13:10:55.112Z,2.80
2023-04-05T13:13:04.201Z,2.78
2023-04-05T13:15:11.701Z,2.60
2023-04-05T13:17:16.729Z,3.17
2023-04-05T13:19:21.911Z,2.70
2023-04-05T13:21:27.425Z,2.40
2023-04-05T13:23:32.712Z,2.83
2023-04-05T13:25:37.818Z,2.60
2023-04-05T13:27:43.149Z,2.92
2023-04-05T13:29:50.772Z,2.53
2023-04-05T13:31:56.303Z,2.92
2023-04-05T13:34:01.565Z,2.58
2023-04-05T13:36:07.160Z,2.72
2023-04-05T13:38:12.411Z,3.00
2023-04-05T13:40:17.712Z,2.70
2023-04-05T13:42:22.829Z,2.53
2023-04-05T13:44:28.225Z,2.42
2023-04-05T13:46:35.952Z,2.92
2023-04-05T13:48:41.593Z,2.55
2023-04-05T13:50:46.659Z,2.67
2023-04-05T13:52:51.838Z,2.50
2023-04-05T13:55:02.823Z,2.47
2023-04-05T13:57:11.306Z,2.50
2023-04-05T13:59:17.478Z,2.78
2023-04-05T14:01:22.708Z,2.90
2023-04-05T14:03:31.016Z,3.08
2023-04-05T14:05:36.125Z,3.08
2023-04-05T14:07:41.509Z,2.80
2023-04-05T14:09:47.504Z,3.15
2023-04-05T14:11:52.631Z,3.30
2023-04-05T14:13:58.573Z,2.67
2023-04-05T14:16:03.710Z,2.85
2023-04-05T14:18:09.105Z,2.67
2023-04-05T14:20:17.100Z,2.65
2023-04-05T14:22:22.493Z,2.90
2023-04-05T14:24:27.884Z,3.22
2023-04-05T14:26:32.942Z,2.72
2023-04-05T14:28:38.117Z,2.90
2023-04-05T14:30:43.333Z,2.97
2023-04-05T14:32:48.467Z,2.90
2023-04-05T14:34:53.748Z,2.40
2023-04-05T14:37:03.211Z,2.70
2023-04-05T14:39:08.609Z,2.63
2023-04-05T14:41:14.135Z,2.40
2023-04-05T14:43:19.306Z,2.60
2023-04-05T14:45:27.374Z,2.95
2023-04-05T14:47:32.468Z,2.80
2023-04-05T14:49:37.641Z,3.00
2023-04-05T14:51:43.168Z,3.10
2023-04-05T14:53:50.948Z,3.00
2023-04-05T14:55:56.313Z,2.80
2023-04-05T14:58:01.374Z,3.10
2023-04-05T15:00:08.240Z,3.13
2023-04-05T15:02:13.315Z,2.90
2023-04-05T15:04:18.359Z,2.63
2023-04-05T15:06:23.555Z,2.67
2023-04-05T15:08:28.613Z,3.33
2023-04-05T15:10:36.644Z,2.85
2023-04-05T15:12:41.789Z,2.72
2023-04-05T15:14:48.856Z,2.60
2023-04-05T15:16:54.225Z,2.90
2023-04-05T15:18:59.421Z,2.22
2023-04-05T15:21:05.191Z,3.08
2023-04-05T15:23:10.405Z,2.50
2023-04-05T15:25:15.935Z,2.80
2023-04-05T15:27:23.604Z,3.00
2023-04-05T15:29:28.857Z,2.60
2023-04-05T15:31:37.485Z,3.03
2023-04-05T15:33:42.593Z,3.22
2023-04-05T15:35:48.241Z,2.42
2023-04-05T15:37:53.316Z,3.00
2023-04-05T15:39:58.822Z,2.58
2023-04-05T15:42:06.473Z,2.75
2023-04-05T15:44:14.119Z,3.03
2023-04-05T15:46:19.490Z,2.75
2023-04-05T15:48:24.585Z,2.83
2023-04-05T15:50:30.084Z,3.08
2023-04-05T15:52:35.931Z,3.05
2023-04-05T15:54:41.131Z,2.53
2023-04-05T15:56:46.652Z,3.03
2023-04-05T15:58:51.745Z,3.05
2023-04-05T16:00:59.417Z,2.90
2023-04-05T16:03:05.451Z,2.20
2023-04-05T16:05:11.076Z,2.60
2023-04-05T16:07:16.656Z,2.80
2023-04-05T16:09:22.057Z,2.70
2023-04-05T16:11:27.822Z,2.28
2023-04-05T16:13:32.959Z,3.15
2023-04-05T16:15:38.282Z,2.70
2023-04-05T16:17:46.319Z,2.88
2023-04-05T16:19:51.392Z,3.03
2023-04-05T16:21:57.328Z,2.65
2023-04-05T16:24:04.074Z,2.55
2023-04-05T16:26:10.495Z,2.90
2023-04-05T16:28:16.105Z,2.45
2023-04-05T16:30:21.290Z,2.60
2023-04-05T16:32:26.625Z,2.55
2023-04-05T16:34:36.661Z,2.72
2023-04-05T16:36:41.902Z,2.38
2023-04-05T16:38:47.554Z,2.65
2023-04-05T16:40:52.929Z,2.42
2023-04-05T16:42:58.989Z,3.70
2023-04-05T16:45:05.166Z,2.67
2023-04-05T16:47:10.736Z,3.15
2023-04-05T16:49:15.983Z,2.72
2023-04-05T16:51:23.613Z,2.83
2023-04-05T16:53:28.978Z,2.80
2023-04-05T16:55:34.045Z,2.80
2023-04-05T16:57:39.432Z,2.83
2023-04-05T16:59:44.845Z,2.60
2023-04-05T17:01:49.968Z,2.70
2023-04-05T17:03:57.656Z,3.17
2023-04-05T17:06:03.595Z,2.85
2023-04-05T17:08:11.508Z,3.00
2023-04-05T17:10:16.813Z,2.90
2023-04-05T17:12:21.962Z,3.20
2023-04-05T17:14:27.391Z,3.08
2023-04-05T17:16:33.350Z,2.83
2023-04-05T17:18:39.639Z,2.75
2023-04-05T17:20:46.507Z,3.03
2023-04-05T17:22:52.633Z,2.63
2023-04-05T17:25:01.405Z,2.80
2023-04-05T17:27:07.606Z,3.03
2023-04-05T17:29:12.981Z,3.05
2023-04-05T17:31:19.200Z,2.60
2023-04-05T17:33:24.615Z,3.05
2023-04-05T17:35:31.521Z,3.38
2023-04-05T17:37:37.398Z,3.30
2023-04-05T17:39:42.478Z,3.60
2023-04-05T17:41:51.265Z,3.53
2023-04-05T17:43:57.681Z,2.95
2023-04-05T17:46:04.501Z,2.78
2023-04-05T17:48:10.528Z,2.85
2023-04-05T17:50:17.357Z,3.65
2023-04-05T17:52:23.696Z,3.42
2023-04-05T17:54:30.199Z,3.58
2023-04-05T17:56:36.438Z,4.03
2023-04-05T17:58:46.442Z,3.75
2023-04-05T18:00:53.701Z,3.63
2023-04-05T18:03:05.996Z,3.58
2023-04-05T18:05:14.301Z,3.00
2023-04-05T18:07:19.821Z,3.13
2023-04-05T18:09:24.839Z,3.00
2023-04-05T18:11:29.867Z,3.03
2023-04-05T18:13:35.145Z,3.15
2023-04-05T18:15:43.277Z,2.97
2023-04-05T18:17:48.397Z,3.40
2023-04-05T18:19:54.753Z,3.50
2023-04-05T18:21:59.938Z,2.78
2023-04-05T18:24:04.980Z,4.10
2023-04-05T18:26:10.362Z,4.28
2023-04-05T18:28:22.936Z,4.13
2023-04-05T18:30:28.625Z,3.88
2023-04-05T18:32:36.526Z,4.00
2023-04-05T18:34:41.548Z,4.18
2023-04-05T18:36:46.729Z,4.00
2023-04-05T18:38:52.020Z,3.90
2023-04-05T18:41:04.162Z,3.70
2023-04-05T18:43:09.235Z,3.75
2023-04-05T18:45:14.945Z,3.47
2023-04-05T18:47:19.984Z,3.40
2023-04-05T18:49:28.036Z,3.20
2023-04-05T18:51:33.551Z,3.83
2023-04-05T18:53:38.694Z,3.13
2023-04-05T18:55:43.723Z,3.60
2023-04-05T18:57:48.727Z,3.53
2023-04-05T18:59:53.732Z,3.33
2023-04-05T19:01:59.169Z,3.72
2023-04-05T19:04:06.355Z,3.83
2023-04-05T19:06:14.138Z,3.90
2023-04-05T19:08:19.675Z,2.88
2023-04-05T19:10:24.679Z,3.15
2023-04-05T19:12:29.709Z,3.33
2023-04-05T19:14:35.150Z,2.72
2023-04-05T19:16:40.253Z,2.60
2023-04-05T19:18:45.487Z,2.80
2023-04-05T19:20:50.869Z,3.38
2023-04-05T19:22:58.479Z,3.00
2023-04-05T19:25:03.599Z,2.83
2023-04-05T19:27:09.196Z,3.13
2023-04-05T19:29:14.269Z,2.92
2023-04-05T19:31:19.372Z,2.72
2023-04-05T19:33:24.479Z,2.80
2023-04-05T19:35:29.545Z,2.83
2023-04-05T19:37:34.597Z,2.95
2023-04-05T19:39:43.192Z,2.80
2023-04-05T19:41:48.245Z,2.80
2023-04-05T19:43:53.287Z,3.35
2023-04-05T19:46:01.695Z,3.30
2023-04-05T19:48:37.279Z,4.10
2023-04-05T19:50:50.057Z,3.17
2023-04-05T19:52:55.138Z,3.28
2023-04-05T19:55:03.247Z,3.45
2023-04-05T19:57:09.985Z,3.03
2023-04-05T19:59:32.651Z,3.90
2023-04-05T20:01:40.640Z,3.67
2023-04-05T20:03:45.728Z,3.80
2023-04-05T20:06:10.896Z,3.60
2023-04-05T20:08:16.547Z,4.20
2023-04-05T20:10:47.874Z,3.75
2023-04-05T20:12:52.944Z,3.72
2023-04-05T20:14:57.971Z,4.13
2023-04-05T20:17:03.299Z,4.30
2023-04-05T20:19:10.728Z,4.25
2023-04-05T20:21:17.010Z,3.53
2023-04-05T20:23:24.920Z,4.38
2023-04-05T20:25:46.931Z,4.40
2023-04-05T20:27:51.960Z,4.15
2023-04-05T20:29:58.325Z,4.22
2023-04-05T20:32:04.774Z,4.10
2023-04-05T20:34:13.744Z,4.55
2023-04-05T20:36:22.780Z,4.55
2023-04-05T20:38:28.941Z,4.75
2023-04-05T20:40:33.959Z,4.93
2023-04-05T20:42:42.966Z,4.85
2023-04-05T20:44:48.419Z,4.80
2023-04-05T20:46:54.987Z,5.70
2023-04-05T20:49:00.193Z,5.57
2023-04-05T20:51:08.978Z,5.00
2023-04-05T20:53:15.388Z,5.35
2023-04-05T20:55:20.894Z,5.20
2023-04-05T20:57:26.497Z,5.05
2023-04-05T20:59:34.217Z,4.70
2023-04-05T21:01:39.704Z,5.35
2023-04-05T21:03:45.772Z,4.68
2023-04-05T21:05:51.236Z,4.93
2023-04-05T21:07:56.692Z,4.90
2023-04-05T21:10:01.949Z,5.78
2023-04-05T21:12:07.907Z,5.47
2023-04-05T21:14:12.937Z,5.30
2023-04-05T21:16:20.880Z,5.88
2023-04-05T21:18:26.349Z,5.10
2023-04-05T21:20:31.898Z,5.35
2023-04-05T21:22:38.181Z,5.53
2023-04-05T21:24:43.169Z,5.35
2023-04-05T21:26:48.184Z,4.68
2023-04-05T21:28:53.215Z,5.18
2023-04-05T21:30:58.316Z,5.65
2023-04-05T21:33:06.808Z,5.97
2023-04-05T21:35:12.829Z,5.47
2023-04-05T21:37:17.918Z,5.65
2023-04-05T21:39:22.910Z,5.57
2023-04-05T21:41:28.436Z,5.88
2023-04-05T21:43:33.989Z,6.32
2023-04-05T21:45:38.976Z,5.20
2023-04-05T21:47:44.331Z,6.03
2023-04-05T21:49:52.854Z,5.53
2023-04-05T21:51:58.254Z,6.00
2023-04-05T21:54:03.693Z,5.97
2023-04-05T21:56:08.809Z,5.88
2023-04-05T21:58:14.104Z,6.20
2023-04-05T22:00:20.007Z,5.85
2023-04-05T22:02:25.334Z,5.50
2023-04-05T22:04:31.166Z,6.05
2023-04-05T22:06:39.560Z,6.22
2023-04-05T22:08:44.909Z,6.47
2023-04-05T22:10:50.089Z,5.85
2023-04-05T22:12:55.122Z,6.90
2023-04-05T22:15:01.535Z,6.88
2023-04-05T22:17:06.825Z,6.60
2023-04-05T22:19:13.540Z,6.10
2023-04-05T22:21:18.546Z,7.00
2023-04-05T22:23:26.817Z,7.40
2023-04-05T22:25:31.797Z,7.47
2023-04-05T22:27:37.057Z,6.43
2023-04-05T22:29:42.214Z,6.85
2023-04-05T22:31:47.207Z,6.90
2023-04-05T22:33:52.604Z,6.38
2023-04-05T22:35:57.674Z,6.35
2023-04-05T22:38:02.797Z,5.97
2023-04-05T22:40:12.294Z,6.60
2023-04-05T22:42:17.296Z,5.93
2023-04-05T22:44:24.639Z,6.35
2023-04-05T22:46:29.744Z,7.18
2023-04-05T22:48:35.016Z,6.30
2023-04-05T22:50:40.004Z,6.40
2023-04-05T22:52:45.122Z,6.68
2023-04-05T22:54:50.156Z,6.20
2023-04-05T22:56:58.297Z,6.32
2023-04-05T22:59:03.537Z,7.03
2023-04-05T23:01:08.689Z,6.65
2023-04-05T23:03:13.698Z,7.03
2023-04-05T23:05:18.899Z,6.97
2023-04-05T23:07:24.130Z,7.03
2023-04-05T23:09:30.203Z,7.22
2023-04-05T23:11:36.005Z,7.68
2023-04-05T23:13:43.732Z,7.55
2023-04-05T23:15:48.750Z,7.55
2023-04-05T23:17:54.032Z,6.93
2023-04-05T23:19:59.368Z,7.15
2023-04-05T23:22:04.393Z,6.68
2023-04-05T23:24:11.000Z,7.50
2023-04-05T23:26:16.281Z,6.95
2023-04-05T23:28:21.537Z,7.43
2023-04-05T23:30:29.205Z,7.63
2023-04-05T23:32:34.266Z,7.50
2023-04-05T23:34:39.776Z,6.78
2023-04-05T23:36:44.800Z,7.13
2023-04-05T23:38:50.060Z,6.90
2023-04-05T23:40:55.033Z,6.38
2023-04-05T23:43:00.099Z,7.30
2023-04-05T23:45:09.032Z,6.57
2023-04-05T23:47:17.861Z,6.88
2023-04-05T23:49:23.599Z,6.72
2023-04-05T23:51:29.606Z,7.50
2023-04-05T23:53:34.595Z,7.45
2023-04-05T23:55:42.621Z,7.32
2023-04-05T23:57:47.598Z,7.82
2023-04-05T23:59:54.217Z,7.22
